sensor_id;sensor_type;location;lat;lon;timestamp;P1;durP1;ratioP1;P2;durP2;ratioP2
70213;SDS011;60138;55.808;37.078;2023-04-08T00:00:03;12.70;;;6.55;;
70213;SDS011;60138;55.808;37.078;2023-04-08T00:02:35;15.53;;;5.73;;
70213;SDS011;60138;55.808;37.078;2023-04-08T00:05:01;15.70;;;6.78;;
70213;SDS011;60138;55.808;37.078;2023-04-08T00:07:28;14.38;;;6.55;;
70213;SDS011;60138;55.808;37.078;2023-04-08T00:09:54;12.60;;;5.87;;
70213;SDS011;60138;55.808;37.078;2023-04-08T00:12:19;12.35;;;5.05;;
70213;SDS011;60138;55.808;37.078;2023-04-08T00:14:45;18.02;;;6.47;;
70213;SDS011;60138;55.808;37.078;2023-04-08T00:17:11;11.63;;;5.53;;
70213;SDS011;60138;55.808;37.078;2023-04-08T00:19:36;13.30;;;6.30;;
70213;SDS011;60138;55.808;37.078;2023-04-08T00:22:02;9.00;;;5.87;;
70213;SDS011;60138;55.808;37.078;2023-04-08T00:24:28;14.13;;;7.25;;
70213;SDS011;60138;55.808;37.078;2023-04-08T00:26:53;13.60;;;6.67;;
70213;SDS011;60138;55.808;37.078;2023-04-08T00:29:19;13.55;;;5.22;;
70213;SDS011;60138;55.808;37.078;2023-04-08T00:31:45;18.67;;;5.10;;
70213;SDS011;60138;55.808;37.078;2023-04-08T00:34:12;14.02;;;6.20;;
70213;SDS011;60138;55.808;37.078;2023-04-08T00:36:37;11.17;;;5.60;;
70213;SDS011;60138;55.808;37.078;2023-04-08T00:39:03;12.77;;;5.07;;
70213;SDS011;60138;55.808;37.078;2023-04-08T00:41:29;8.80;;;5.70;;
70213;SDS011;60138;55.808;37.078;2023-04-08T00:43:55;11.20;;;5.97;;
70213;SDS011;60138;55.808;37.078;2023-04-08T00:46:21;12.17;;;5.40;;
70213;SDS011;60138;55.808;37.078;2023-04-08T00:48:46;12.75;;;5.82;;
70213;SDS011;60138;55.808;37.078;2023-04-08T00:51:12;13.27;;;7.17;;
70213;SDS011;60138;55.808;37.078;2023-04-08T00:53:38;11.65;;;6.50;;
70213;SDS011;60138;55.808;37.078;2023-04-08T00:56:04;10.63;;;6.73;;
70213;SDS011;60138;55.808;37.078;2023-04-08T00:58:30;9.38;;;6.20;;
70213;SDS011;60138;55.808;37.078;2023-04-08T01:01:02;13.43;;;6.10;;
70213;SDS011;60138;55.808;37.078;2023-04-08T01:03:38;16.88;;;5.88;;
70213;SDS011;60138;55.808;37.078;2023-04-08T01:06:22;11.73;;;6.38;;
70213;SDS011;60138;55.808;37.078;2023-04-08T01:09:03;13.35;;;5.70;;
70213;SDS011;60138;55.808;37.078;2023-04-08T01:11:30;13.40;;;7.07;;
70213;SDS011;60138;55.808;37.078;2023-04-08T01:13:58;16.95;;;6.82;;
70213;SDS011;60138;55.808;37.078;2023-04-08T01:16:28;13.85;;;6.10;;
70213;SDS011;60138;55.808;37.078;2023-04-08T01:18:53;9.43;;;5.53;;
70213;SDS011;60138;55.808;37.078;2023-04-08T01:21:21;12.32;;;6.55;;
70213;SDS011;60138;55.808;37.078;2023-04-08T01:23:58;15.25;;;5.78;;
70213;SDS011;60138;55.808;37.078;2023-04-08T01:26:25;13.68;;;5.70;;
70213;SDS011;60138;55.808;37.078;2023-04-08T01:28:52;10.90;;;5.85;;
70213;SDS011;60138;55.808;37.078;2023-04-08T01:31:21;14.63;;;6.15;;
70213;SDS011;60138;55.808;37.078;2023-04-08T01:33:49;9.43;;;5.68;;
70213;SDS011;60138;55.808;37.078;2023-04-08T01:36:16;11.32;;;5.78;;
70213;SDS011;60138;55.808;37.078;2023-04-08T01:38:43;15.35;;;6.95;;
70213;SDS011;60138;55.808;37.078;2023-04-08T01:41:14;12.20;;;5.43;;
70213;SDS011;60138;55.808;37.078;2023-04-08T01:43:42;10.40;;;6.00;;
70213;SDS011;60138;55.808;37.078;2023-04-08T01:46:09;15.43;;;7.68;;
70213;SDS011;60138;55.808;37.078;2023-04-08T01:48:37;16.77;;;8.18;;
70213;SDS011;60138;55.808;37.078;2023-04-08T01:51:04;15.63;;;6.40;;
70213;SDS011;60138;55.808;37.078;2023-04-08T01:53:31;9.32;;;5.50;;
70213;SDS011;60138;55.808;37.078;2023-04-08T01:56:01;11.15;;;7.22;;
70213;SDS011;60138;55.808;37.078;2023-04-08T01:58:31;13.93;;;5.93;;
70213;SDS011;60138;55.808;37.078;2023-04-08T02:01:09;13.43;;;6.73;;
70213;SDS011;60138;55.808;37.078;2023-04-08T02:03:36;9.60;;;6.50;;
70213;SDS011;60138;55.808;37.078;2023-04-08T02:06:03;8.10;;;5.65;;
70213;SDS011;60138;55.808;37.078;2023-04-08T02:08:29;11.73;;;5.13;;
70213;SDS011;60138;55.808;37.078;2023-04-08T02:10:57;11.00;;;6.00;;
70213;SDS011;60138;55.808;37.078;2023-04-08T02:13:23;10.88;;;6.07;;
70213;SDS011;60138;55.808;37.078;2023-04-08T02:15:50;12.93;;;5.72;;
70213;SDS011;60138;55.808;37.078;2023-04-08T02:18:23;13.97;;;6.70;;
70213;SDS011;60138;55.808;37.078;2023-04-08T02:20:52;11.73;;;6.28;;
70213;SDS011;60138;55.808;37.078;2023-04-08T02:23:37;10.27;;;6.25;;
70213;SDS011;60138;55.808;37.078;2023-04-08T02:26:05;13.00;;;6.53;;
70213;SDS011;60138;55.808;37.078;2023-04-08T02:28:34;12.83;;;7.33;;
70213;SDS011;60138;55.808;37.078;2023-04-08T02:31:01;20.15;;;7.22;;
70213;SDS011;60138;55.808;37.078;2023-04-08T02:33:27;15.65;;;6.30;;
70213;SDS011;60138;55.808;37.078;2023-04-08T02:35:53;16.98;;;6.70;;
70213;SDS011;60138;55.808;37.078;2023-04-08T02:38:22;11.55;;;6.25;;
70213;SDS011;60138;55.808;37.078;2023-04-08T02:40:48;13.55;;;7.07;;
70213;SDS011;60138;55.808;37.078;2023-04-08T02:43:14;10.50;;;5.90;;
70213;SDS011;60138;55.808;37.078;2023-04-08T02:45:40;12.50;;;5.87;;
70213;SDS011;60138;55.808;37.078;2023-04-08T02:48:07;12.52;;;6.43;;
70213;SDS011;60138;55.808;37.078;2023-04-08T02:50:33;20.23;;;7.30;;
70213;SDS011;60138;55.808;37.078;2023-04-08T02:52:59;16.73;;;6.40;;
70213;SDS011;60138;55.808;37.078;2023-04-08T02:55:24;13.35;;;5.88;;
70213;SDS011;60138;55.808;37.078;2023-04-08T02:57:50;14.97;;;6.23;;
70213;SDS011;60138;55.808;37.078;2023-04-08T03:00:16;14.10;;;6.47;;
70213;SDS011;60138;55.808;37.078;2023-04-08T03:02:42;12.45;;;6.40;;
70213;SDS011;60138;55.808;37.078;2023-04-08T03:05:08;10.68;;;6.15;;
70213;SDS011;60138;55.808;37.078;2023-04-08T03:07:34;30.17;;;6.47;;
70213;SDS011;60138;55.808;37.078;2023-04-08T03:09:59;11.05;;;5.90;;
70213;SDS011;60138;55.808;37.078;2023-04-08T03:12:26;13.18;;;5.97;;
70213;SDS011;60138;55.808;37.078;2023-04-08T03:14:52;11.60;;;6.03;;
70213;SDS011;60138;55.808;37.078;2023-04-08T03:17:18;12.30;;;6.68;;
70213;SDS011;60138;55.808;37.078;2023-04-08T03:19:43;13.03;;;6.20;;
70213;SDS011;60138;55.808;37.078;2023-04-08T03:22:09;11.73;;;6.28;;
70213;SDS011;60138;55.808;37.078;2023-04-08T03:24:35;16.03;;;5.97;;
70213;SDS011;60138;55.808;37.078;2023-04-08T03:27:01;12.65;;;5.75;;
70213;SDS011;60138;55.808;37.078;2023-04-08T03:29:27;12.23;;;6.60;;
70213;SDS011;60138;55.808;37.078;2023-04-08T03:31:53;12.98;;;6.57;;
70213;SDS011;60138;55.808;37.078;2023-04-08T03:34:19;9.77;;;6.47;;
70213;SDS011;60138;55.808;37.078;2023-04-08T03:36:44;19.90;;;6.03;;
70213;SDS011;60138;55.808;37.078;2023-04-08T03:39:10;12.80;;;5.87;;
70213;SDS011;60138;55.808;37.078;2023-04-08T03:41:36;14.73;;;6.32;;
70213;SDS011;60138;55.808;37.078;2023-04-08T03:44:01;16.93;;;7.40;;
70213;SDS011;60138;55.808;37.078;2023-04-08T03:46:27;15.05;;;6.07;;
70213;SDS011;60138;55.808;37.078;2023-04-08T03:48:52;16.43;;;6.53;;
70213;SDS011;60138;55.808;37.078;2023-04-08T03:51:18;11.20;;;6.28;;
70213;SDS011;60138;55.808;37.078;2023-04-08T03:53:44;11.87;;;6.27;;
70213;SDS011;60138;55.808;37.078;2023-04-08T03:56:09;17.03;;;7.10;;
70213;SDS011;60138;55.808;37.078;2023-04-08T03:58:35;13.55;;;6.90;;
70213;SDS011;60138;55.808;37.078;2023-04-08T04:01:01;15.83;;;7.27;;
70213;SDS011;60138;55.808;37.078;2023-04-08T04:03:26;13.88;;;6.63;;
70213;SDS011;60138;55.808;37.078;2023-04-08T04:05:52;24.33;;;7.00;;
70213;SDS011;60138;55.808;37.078;2023-04-08T04:08:18;12.40;;;7.10;;
70213;SDS011;60138;55.808;37.078;2023-04-08T04:10:43;14.77;;;7.60;;
70213;SDS011;60138;55.808;37.078;2023-04-08T04:13:09;12.90;;;7.63;;
70213;SDS011;60138;55.808;37.078;2023-04-08T04:15:38;13.77;;;7.13;;
70213;SDS011;60138;55.808;37.078;2023-04-08T04:18:05;13.25;;;6.88;;
70213;SDS011;60138;55.808;37.078;2023-04-08T04:20:31;17.17;;;7.10;;
70213;SDS011;60138;55.808;37.078;2023-04-08T04:22:57;16.60;;;6.63;;
70213;SDS011;60138;55.808;37.078;2023-04-08T04:25:22;12.88;;;7.70;;
70213;SDS011;60138;55.808;37.078;2023-04-08T04:27:49;14.07;;;7.17;;
70213;SDS011;60138;55.808;37.078;2023-04-08T04:30:15;13.55;;;7.47;;
70213;SDS011;60138;55.808;37.078;2023-04-08T04:32:41;15.30;;;6.30;;
70213;SDS011;60138;55.808;37.078;2023-04-08T04:35:11;16.60;;;7.13;;
70213;SDS011;60138;55.808;37.078;2023-04-08T04:37:37;27.47;;;7.07;;
70213;SDS011;60138;55.808;37.078;2023-04-08T04:40:03;10.88;;;7.50;;
70213;SDS011;60138;55.808;37.078;2023-04-08T04:42:29;18.45;;;7.90;;
70213;SDS011;60138;55.808;37.078;2023-04-08T04:44:57;18.25;;;7.55;;
70213;SDS011;60138;55.808;37.078;2023-04-08T04:47:22;19.80;;;7.53;;
70213;SDS011;60138;55.808;37.078;2023-04-08T04:49:48;10.85;;;6.50;;
70213;SDS011;60138;55.808;37.078;2023-04-08T04:52:14;16.23;;;7.43;;
70213;SDS011;60138;55.808;37.078;2023-04-08T04:54:39;19.20;;;7.18;;
70213;SDS011;60138;55.808;37.078;2023-04-08T04:57:05;15.27;;;6.10;;
70213;SDS011;60138;55.808;37.078;2023-04-08T04:59:31;18.30;;;6.53;;
70213;SDS011;60138;55.808;37.078;2023-04-08T05:01:56;15.30;;;6.45;;
70213;SDS011;60138;55.808;37.078;2023-04-08T05:04:22;19.33;;;6.73;;
70213;SDS011;60138;55.808;37.078;2023-04-08T05:06:49;12.63;;;6.60;;
70213;SDS011;60138;55.808;37.078;2023-04-08T05:09:14;13.07;;;6.72;;
70213;SDS011;60138;55.808;37.078;2023-04-08T05:11:40;24.60;;;6.23;;
70213;SDS011;60138;55.808;37.078;2023-04-08T05:14:05;12.63;;;5.97;;
70213;SDS011;60138;55.808;37.078;2023-04-08T05:16:32;17.25;;;7.70;;
70213;SDS011;60138;55.808;37.078;2023-04-08T05:18:58;15.90;;;6.88;;
70213;SDS011;60138;55.808;37.078;2023-04-08T05:21:24;13.73;;;6.77;;
70213;SDS011;60138;55.808;37.078;2023-04-08T05:23:49;18.52;;;7.05;;
70213;SDS011;60138;55.808;37.078;2023-04-08T05:26:15;13.53;;;6.70;;
70213;SDS011;60138;55.808;37.078;2023-04-08T05:28:41;16.67;;;7.47;;
70213;SDS011;60138;55.808;37.078;2023-04-08T05:31:06;16.40;;;6.57;;
70213;SDS011;60138;55.808;37.078;2023-04-08T05:33:32;14.17;;;5.67;;
70213;SDS011;60138;55.808;37.078;2023-04-08T05:35:58;12.38;;;6.43;;
70213;SDS011;60138;55.808;37.078;2023-04-08T05:38:23;17.23;;;7.13;;
70213;SDS011;60138;55.808;37.078;2023-04-08T05:40:49;13.98;;;6.80;;
70213;SDS011;60138;55.808;37.078;2023-04-08T05:43:14;12.00;;;6.30;;
70213;SDS011;60138;55.808;37.078;2023-04-08T05:45:40;17.00;;;6.47;;
70213;SDS011;60138;55.808;37.078;2023-04-08T05:48:06;21.75;;;5.82;;
70213;SDS011;60138;55.808;37.078;2023-04-08T05:50:33;16.50;;;8.03;;
70213;SDS011;60138;55.808;37.078;2023-04-08T05:52:59;13.13;;;6.50;;
70213;SDS011;60138;55.808;37.078;2023-04-08T05:55:25;14.17;;;6.37;;
70213;SDS011;60138;55.808;37.078;2023-04-08T05:57:51;14.00;;;6.50;;
70213;SDS011;60138;55.808;37.078;2023-04-08T06:00:16;13.80;;;7.27;;
70213;SDS011;60138;55.808;37.078;2023-04-08T06:02:42;15.15;;;6.22;;
70213;SDS011;60138;55.808;37.078;2023-04-08T06:05:08;19.70;;;6.90;;
70213;SDS011;60138;55.808;37.078;2023-04-08T06:07:33;16.25;;;6.35;;
70213;SDS011;60138;55.808;37.078;2023-04-08T06:09:59;18.80;;;7.03;;
70213;SDS011;60138;55.808;37.078;2023-04-08T06:12:25;16.15;;;6.90;;
70213;SDS011;60138;55.808;37.078;2023-04-08T06:14:54;15.57;;;6.00;;
70213;SDS011;60138;55.808;37.078;2023-04-08T06:17:20;11.65;;;6.47;;
70213;SDS011;60138;55.808;37.078;2023-04-08T06:19:46;14.37;;;6.93;;
70213;SDS011;60138;55.808;37.078;2023-04-08T06:22:11;12.43;;;6.45;;
70213;SDS011;60138;55.808;37.078;2023-04-08T06:24:37;11.47;;;6.27;;
70213;SDS011;60138;55.808;37.078;2023-04-08T06:27:03;17.13;;;6.80;;
70213;SDS011;60138;55.808;37.078;2023-04-08T06:29:28;12.20;;;6.25;;
70213;SDS011;60138;55.808;37.078;2023-04-08T06:31:54;17.65;;;7.45;;
70213;SDS011;60138;55.808;37.078;2023-04-08T06:34:20;13.98;;;7.38;;
70213;SDS011;60138;55.808;37.078;2023-04-08T06:36:45;10.70;;;6.47;;
70213;SDS011;60138;55.808;37.078;2023-04-08T06:39:11;17.20;;;6.18;;
70213;SDS011;60138;55.808;37.078;2023-04-08T06:41:37;17.30;;;7.70;;
70213;SDS011;60138;55.808;37.078;2023-04-08T06:44:16;13.73;;;7.45;;
70213;SDS011;60138;55.808;37.078;2023-04-08T06:46:42;13.15;;;6.10;;
70213;SDS011;60138;55.808;37.078;2023-04-08T06:49:08;14.73;;;7.55;;
70213;SDS011;60138;55.808;37.078;2023-04-08T06:51:33;13.70;;;6.93;;
70213;SDS011;60138;55.808;37.078;2023-04-08T06:53:59;9.82;;;5.85;;
70213;SDS011;60138;55.808;37.078;2023-04-08T06:56:24;11.87;;;5.87;;
70213;SDS011;60138;55.808;37.078;2023-04-08T06:58:50;11.23;;;6.30;;
70213;SDS011;60138;55.808;37.078;2023-04-08T07:01:16;16.80;;;6.80;;
70213;SDS011;60138;55.808;37.078;2023-04-08T07:03:42;11.27;;;5.85;;
70213;SDS011;60138;55.808;37.078;2023-04-08T07:06:08;14.90;;;6.33;;
70213;SDS011;60138;55.808;37.078;2023-04-08T07:08:34;9.93;;;5.78;;
70213;SDS011;60138;55.808;37.078;2023-04-08T07:10:59;10.23;;;5.60;;
70213;SDS011;60138;55.808;37.078;2023-04-08T07:13:25;13.35;;;5.53;;
70213;SDS011;60138;55.808;37.078;2023-04-08T07:15:51;14.17;;;7.40;;
70213;SDS011;60138;55.808;37.078;2023-04-08T07:18:16;11.25;;;6.20;;
70213;SDS011;60138;55.808;37.078;2023-04-08T07:20:42;12.80;;;6.47;;
70213;SDS011;60138;55.808;37.078;2023-04-08T07:23:07;16.53;;;6.63;;
70213;SDS011;60138;55.808;37.078;2023-04-08T07:25:33;13.38;;;5.57;;
70213;SDS011;60138;55.808;37.078;2023-04-08T07:27:59;10.10;;;5.50;;
70213;SDS011;60138;55.808;37.078;2023-04-08T07:30:25;14.85;;;5.88;;
70213;SDS011;60138;55.808;37.078;2023-04-08T07:32:50;11.30;;;4.83;;
70213;SDS011;60138;55.808;37.078;2023-04-08T07:35:16;15.85;;;5.28;;
70213;SDS011;60138;55.808;37.078;2023-04-08T07:37:42;13.70;;;6.50;;
70213;SDS011;60138;55.808;37.078;2023-04-08T07:40:07;12.75;;;5.15;;
70213;SDS011;60138;55.808;37.078;2023-04-08T07:42:33;18.47;;;5.23;;
70213;SDS011;60138;55.808;37.078;2023-04-08T07:44:59;15.85;;;5.60;;
70213;SDS011;60138;55.808;37.078;2023-04-08T07:47:25;11.20;;;6.03;;
70213;SDS011;60138;55.808;37.078;2023-04-08T07:49:50;18.10;;;5.78;;
70213;SDS011;60138;55.808;37.078;2023-04-08T07:52:16;8.00;;;5.30;;
70213;SDS011;60138;55.808;37.078;2023-04-08T07:54:41;10.33;;;5.23;;
70213;SDS011;60138;55.808;37.078;2023-04-08T07:57:07;14.10;;;5.85;;
70213;SDS011;60138;55.808;37.078;2023-04-08T07:59:33;8.97;;;5.10;;
70213;SDS011;60138;55.808;37.078;2023-04-08T08:01:58;8.77;;;4.57;;
70213;SDS011;60138;55.808;37.078;2023-04-08T08:04:24;10.23;;;4.40;;
70213;SDS011;60138;55.808;37.078;2023-04-08T08:06:50;7.70;;;4.57;;
70213;SDS011;60138;55.808;37.078;2023-04-08T08:09:15;6.30;;;4.30;;
70213;SDS011;60138;55.808;37.078;2023-04-08T08:11:41;7.90;;;4.40;;
70213;SDS011;60138;55.808;37.078;2023-04-08T08:14:07;8.27;;;4.03;;
70213;SDS011;60138;55.808;37.078;2023-04-08T08:16:32;7.70;;;4.57;;
70213;SDS011;60138;55.808;37.078;2023-04-08T08:18:58;10.32;;;4.35;;
70213;SDS011;60138;55.808;37.078;2023-04-08T08:21:24;8.43;;;3.90;;
70213;SDS011;60138;55.808;37.078;2023-04-08T08:23:50;11.68;;;4.05;;
70213;SDS011;60138;55.808;37.078;2023-04-08T08:26:17;6.03;;;4.50;;
70213;SDS011;60138;55.808;37.078;2023-04-08T08:28:43;15.80;;;5.00;;
70213;SDS011;60138;55.808;37.078;2023-04-08T08:31:08;8.98;;;4.57;;
70213;SDS011;60138;55.808;37.078;2023-04-08T08:33:34;7.17;;;3.80;;
70213;SDS011;60138;55.808;37.078;2023-04-08T08:35:59;8.27;;;4.57;;
70213;SDS011;60138;55.808;37.078;2023-04-08T08:38:26;9.07;;;4.63;;
70213;SDS011;60138;55.808;37.078;2023-04-08T08:40:55;12.35;;;4.85;;
70213;SDS011;60138;55.808;37.078;2023-04-08T08:43:26;13.77;;;5.38;;
70213;SDS011;60138;55.808;37.078;2023-04-08T08:45:53;9.63;;;4.30;;
70213;SDS011;60138;55.808;37.078;2023-04-08T08:48:19;8.35;;;4.22;;
70213;SDS011;60138;55.808;37.078;2023-04-08T08:50:44;17.15;;;4.68;;
70213;SDS011;60138;55.808;37.078;2023-04-08T08:53:10;7.83;;;3.80;;
70213;SDS011;60138;55.808;37.078;2023-04-08T08:55:36;11.50;;;4.25;;
70213;SDS011;60138;55.808;37.078;2023-04-08T08:58:02;8.87;;;3.93;;
70213;SDS011;60138;55.808;37.078;2023-04-08T09:00:34;8.02;;;4.25;;
70213;SDS011;60138;55.808;37.078;2023-04-08T09:03:20;9.80;;;5.18;;
70213;SDS011;60138;55.808;37.078;2023-04-08T09:08:24;9.50;;;4.03;;
70213;SDS011;60138;55.808;37.078;2023-04-08T09:10:52;12.63;;;5.15;;
70213;SDS011;60138;55.808;37.078;2023-04-08T09:13:18;13.52;;;5.20;;
70213;SDS011;60138;55.808;37.078;2023-04-08T09:16:00;9.53;;;4.87;;
70213;SDS011;60138;55.808;37.078;2023-04-08T09:18:26;10.23;;;4.82;;
70213;SDS011;60138;55.808;37.078;2023-04-08T09:20:52;11.57;;;5.17;;
70213;SDS011;60138;55.808;37.078;2023-04-08T09:23:18;10.52;;;4.57;;
70213;SDS011;60138;55.808;37.078;2023-04-08T09:25:43;10.73;;;5.17;;
70213;SDS011;60138;55.808;37.078;2023-04-08T09:28:19;9.07;;;4.65;;
70213;SDS011;60138;55.808;37.078;2023-04-08T09:30:45;10.03;;;5.33;;
70213;SDS011;60138;55.808;37.078;2023-04-08T09:33:11;9.95;;;4.45;;
70213;SDS011;60138;55.808;37.078;2023-04-08T09:35:36;10.80;;;5.73;;
70213;SDS011;60138;55.808;37.078;2023-04-08T09:38:02;11.65;;;4.75;;
70213;SDS011;60138;55.808;37.078;2023-04-08T09:40:28;13.97;;;6.20;;
70213;SDS011;60138;55.808;37.078;2023-04-08T09:42:58;13.52;;;5.68;;
70213;SDS011;60138;55.808;37.078;2023-04-08T09:45:29;10.38;;;5.60;;
70213;SDS011;60138;55.808;37.078;2023-04-08T09:50:55;13.17;;;4.30;;
70213;SDS011;60138;55.808;37.078;2023-04-08T09:53:35;11.40;;;5.05;;
70213;SDS011;60138;55.808;37.078;2023-04-08T09:56:09;13.43;;;5.78;;
70213;SDS011;60138;55.808;37.078;2023-04-08T09:58:48;15.15;;;5.22;;
70213;SDS011;60138;55.808;37.078;2023-04-08T10:01:21;20.35;;;5.80;;
70213;SDS011;60138;55.808;37.078;2023-04-08T10:03:53;15.83;;;4.83;;
70213;SDS011;60138;55.808;37.078;2023-04-08T10:06:19;12.43;;;5.43;;
70213;SDS011;60138;55.808;37.078;2023-04-08T10:08:46;12.93;;;5.95;;
70213;SDS011;60138;55.808;37.078;2023-04-08T10:11:15;16.75;;;5.00;;
70213;SDS011;60138;55.808;37.078;2023-04-08T10:13:41;20.85;;;7.60;;
70213;SDS011;60138;55.808;37.078;2023-04-08T10:16:17;13.35;;;6.10;;
70213;SDS011;60138;55.808;37.078;2023-04-08T10:18:42;17.60;;;5.57;;
70213;SDS011;60138;55.808;37.078;2023-04-08T10:23:56;10.82;;;4.50;;
70213;SDS011;60138;55.808;37.078;2023-04-08T10:26:33;9.77;;;4.72;;
70213;SDS011;60138;55.808;37.078;2023-04-08T10:31:46;13.23;;;5.40;;
70213;SDS011;60138;55.808;37.078;2023-04-08T10:36:46;25.50;;;6.28;;
70213;SDS011;60138;55.808;37.078;2023-04-08T10:39:12;13.95;;;6.20;;
70213;SDS011;60138;55.808;37.078;2023-04-08T10:41:45;19.77;;;7.88;;
70213;SDS011;60138;55.808;37.078;2023-04-08T10:44:16;15.40;;;5.77;;
70213;SDS011;60138;55.808;37.078;2023-04-08T10:46:45;12.55;;;5.53;;
70213;SDS011;60138;55.808;37.078;2023-04-08T10:49:12;23.70;;;6.32;;
70213;SDS011;60138;55.808;37.078;2023-04-08T10:51:38;15.57;;;5.43;;
70213;SDS011;60138;55.808;37.078;2023-04-08T10:54:08;11.68;;;6.57;;
70213;SDS011;60138;55.808;37.078;2023-04-08T10:56:45;11.60;;;5.87;;
70213;SDS011;60138;55.808;37.078;2023-04-08T10:59:13;12.50;;;6.07;;
70213;SDS011;60138;55.808;37.078;2023-04-08T11:01:39;15.52;;;7.45;;
70213;SDS011;60138;55.808;37.078;2023-04-08T11:04:06;12.75;;;6.60;;
70213;SDS011;60138;55.808;37.078;2023-04-08T11:06:35;10.20;;;6.03;;
70213;SDS011;60138;55.808;37.078;2023-04-08T11:09:01;11.57;;;5.07;;
70213;SDS011;60138;55.808;37.078;2023-04-08T11:11:27;11.38;;;5.28;;
70213;SDS011;60138;55.808;37.078;2023-04-08T11:13:54;13.07;;;7.03;;
70213;SDS011;60138;55.808;37.078;2023-04-08T11:16:21;14.03;;;7.53;;
70213;SDS011;60138;55.808;37.078;2023-04-08T11:18:47;16.95;;;7.63;;
70213;SDS011;60138;55.808;37.078;2023-04-08T11:21:13;11.40;;;6.28;;
70213;SDS011;60138;55.808;37.078;2023-04-08T11:23:40;10.75;;;7.13;;
70213;SDS011;60138;55.808;37.078;2023-04-08T11:26:06;15.90;;;6.70;;
70213;SDS011;60138;55.808;37.078;2023-04-08T11:28:34;11.73;;;6.43;;
70213;SDS011;60138;55.808;37.078;2023-04-08T11:31:01;11.38;;;6.25;;
70213;SDS011;60138;55.808;37.078;2023-04-08T11:33:29;17.55;;;7.43;;
70213;SDS011;60138;55.808;37.078;2023-04-08T11:35:55;12.18;;;6.32;;
70213;SDS011;60138;55.808;37.078;2023-04-08T11:38:22;12.20;;;7.43;;
70213;SDS011;60138;55.808;37.078;2023-04-08T11:40:52;11.68;;;5.70;;
70213;SDS011;60138;55.808;37.078;2023-04-08T11:43:22;8.45;;;5.97;;
70213;SDS011;60138;55.808;37.078;2023-04-08T11:45:48;19.67;;;6.67;;
70213;SDS011;60138;55.808;37.078;2023-04-08T11:48:14;21.48;;;6.22;;
70213;SDS011;60138;55.808;37.078;2023-04-08T11:50:41;18.45;;;8.75;;
70213;SDS011;60138;55.808;37.078;2023-04-08T11:55:44;9.98;;;5.85;;
70213;SDS011;60138;55.808;37.078;2023-04-08T11:58:09;36.10;;;6.00;;
70213;SDS011;60138;55.808;37.078;2023-04-08T12:00:35;13.18;;;6.22;;
70213;SDS011;60138;55.808;37.078;2023-04-08T12:03:01;11.80;;;5.97;;
70213;SDS011;60138;55.808;37.078;2023-04-08T12:05:27;14.52;;;6.57;;
70213;SDS011;60138;55.808;37.078;2023-04-08T12:07:52;18.30;;;5.60;;
70213;SDS011;60138;55.808;37.078;2023-04-08T12:10:18;11.60;;;4.88;;
70213;SDS011;60138;55.808;37.078;2023-04-08T12:12:44;17.83;;;5.40;;
70213;SDS011;60138;55.808;37.078;2023-04-08T12:15:10;12.73;;;5.38;;
70213;SDS011;60138;55.808;37.078;2023-04-08T12:17:35;11.57;;;5.53;;
70213;SDS011;60138;55.808;37.078;2023-04-08T12:20:01;12.57;;;5.33;;
70213;SDS011;60138;55.808;37.078;2023-04-08T12:22:28;14.27;;;5.70;;
70213;SDS011;60138;55.808;37.078;2023-04-08T12:24:54;12.60;;;6.20;;
70213;SDS011;60138;55.808;37.078;2023-04-08T12:27:19;12.97;;;5.27;;
70213;SDS011;60138;55.808;37.078;2023-04-08T12:29:45;11.83;;;5.37;;
70213;SDS011;60138;55.808;37.078;2023-04-08T12:32:11;13.80;;;6.23;;
70213;SDS011;60138;55.808;37.078;2023-04-08T12:34:36;10.45;;;5.93;;
70213;SDS011;60138;55.808;37.078;2023-04-08T12:37:02;11.13;;;5.73;;
70213;SDS011;60138;55.808;37.078;2023-04-08T12:39:28;14.83;;;6.40;;
70213;SDS011;60138;55.808;37.078;2023-04-08T12:41:53;11.23;;;6.20;;
70213;SDS011;60138;55.808;37.078;2023-04-08T12:44:19;14.60;;;5.60;;
70213;SDS011;60138;55.808;37.078;2023-04-08T12:46:45;16.40;;;6.18;;
70213;SDS011;60138;55.808;37.078;2023-04-08T12:49:10;18.23;;;8.57;;
70213;SDS011;60138;55.808;37.078;2023-04-08T12:51:36;12.57;;;6.23;;
70213;SDS011;60138;55.808;37.078;2023-04-08T12:54:02;11.00;;;6.00;;
70213;SDS011;60138;55.808;37.078;2023-04-08T12:56:28;10.68;;;5.93;;
70213;SDS011;60138;55.808;37.078;2023-04-08T12:58:54;12.82;;;6.07;;
70213;SDS011;60138;55.808;37.078;2023-04-08T13:01:20;14.57;;;6.23;;
70213;SDS011;60138;55.808;37.078;2023-04-08T13:03:45;18.55;;;6.53;;
70213;SDS011;60138;55.808;37.078;2023-04-08T13:06:11;16.60;;;7.47;;
70213;SDS011;60138;55.808;37.078;2023-04-08T13:08:37;11.93;;;5.60;;
70213;SDS011;60138;55.808;37.078;2023-04-08T13:11:02;13.45;;;5.38;;
70213;SDS011;60138;55.808;37.078;2023-04-08T13:13:28;18.47;;;5.57;;
70213;SDS011;60138;55.808;37.078;2023-04-08T13:15:53;11.80;;;5.93;;
70213;SDS011;60138;55.808;37.078;2023-04-08T13:18:19;13.90;;;6.03;;
70213;SDS011;60138;55.808;37.078;2023-04-08T13:20:45;12.23;;;5.75;;
70213;SDS011;60138;55.808;37.078;2023-04-08T13:23:10;12.03;;;5.53;;
70213;SDS011;60138;55.808;37.078;2023-04-08T13:25:36;10.80;;;5.97;;
70213;SDS011;60138;55.808;37.078;2023-04-08T13:28:02;13.47;;;5.63;;
70213;SDS011;60138;55.808;37.078;2023-04-08T13:30:28;14.98;;;5.25;;
70213;SDS011;60138;55.808;37.078;2023-04-08T13:32:53;12.60;;;5.20;;
70213;SDS011;60138;55.808;37.078;2023-04-08T13:35:19;10.63;;;5.22;;
70213;SDS011;60138;55.808;37.078;2023-04-08T13:37:44;11.53;;;5.77;;
70213;SDS011;60138;55.808;37.078;2023-04-08T13:40:10;11.67;;;5.77;;
70213;SDS011;60138;55.808;37.078;2023-04-08T13:42:37;11.38;;;5.93;;
70213;SDS011;60138;55.808;37.078;2023-04-08T13:45:03;13.35;;;5.50;;
70213;SDS011;60138;55.808;37.078;2023-04-08T13:47:29;12.40;;;5.27;;
70213;SDS011;60138;55.808;37.078;2023-04-08T13:49:55;9.80;;;5.40;;
70213;SDS011;60138;55.808;37.078;2023-04-08T13:52:21;13.60;;;5.30;;
70213;SDS011;60138;55.808;37.078;2023-04-08T13:54:46;12.90;;;5.40;;
70213;SDS011;60138;55.808;37.078;2023-04-08T13:57:12;12.77;;;5.97;;
70213;SDS011;60138;55.808;37.078;2023-04-08T13:59:37;17.40;;;5.88;;
70213;SDS011;60138;55.808;37.078;2023-04-08T14:02:03;9.93;;;6.33;;
70213;SDS011;60138;55.808;37.078;2023-04-08T14:04:29;10.65;;;6.57;;
70213;SDS011;60138;55.808;37.078;2023-04-08T14:06:54;12.07;;;5.67;;
70213;SDS011;60138;55.808;37.078;2023-04-08T14:09:20;14.90;;;6.27;;
70213;SDS011;60138;55.808;37.078;2023-04-08T14:11:45;12.27;;;6.78;;
70213;SDS011;60138;55.808;37.078;2023-04-08T14:14:11;19.87;;;6.77;;
70213;SDS011;60138;55.808;37.078;2023-04-08T14:16:37;16.55;;;6.70;;
70213;SDS011;60138;55.808;37.078;2023-04-08T14:19:03;12.50;;;7.67;;
70213;SDS011;60138;55.808;37.078;2023-04-08T14:21:29;17.60;;;7.28;;
70213;SDS011;60138;55.808;37.078;2023-04-08T14:23:55;13.93;;;7.03;;
70213;SDS011;60138;55.808;37.078;2023-04-08T14:26:20;18.43;;;6.43;;
70213;SDS011;60138;55.808;37.078;2023-04-08T14:28:46;18.85;;;6.43;;
70213;SDS011;60138;55.808;37.078;2023-04-08T14:31:12;15.90;;;8.10;;
70213;SDS011;60138;55.808;37.078;2023-04-08T14:33:38;13.75;;;8.02;;
70213;SDS011;60138;55.808;37.078;2023-04-08T14:36:04;16.53;;;6.10;;